sensor_id;sensor_type;location;lat;lon;timestamp;pressure;altitude;pressure_sealevel;temperature;humidity
54666;BME280;40566;50.006;36.180;2022-07-23T00:00:47;99371.13;;;15.33;79.08
54666;BME280;40566;50.006;36.180;2022-07-23T00:05:48;99371.28;;;15.30;79.43
54666;BME280;40566;50.006;36.180;2022-07-23T00:10:49;99371.53;;;15.25;79.28
54666;BME280;40566;50.006;36.180;2022-07-23T00:15:50;99381.88;;;15.27;79.46
54666;BME280;40566;50.006;36.180;2022-07-23T00:20:51;99374.28;;;15.22;79.49
54666;BME280;40566;50.006;36.180;2022-07-23T00:25:52;99365.47;;;15.25;79.46
54666;BME280;40566;50.006;36.180;2022-07-23T00:30:52;99370.78;;;15.23;79.69
54666;BME280;40566;50.006;36.180;2022-07-23T00:35:53;99375.28;;;15.20;79.76
54666;BME280;40566;50.006;36.180;2022-07-23T00:40:53;99385.56;;;15.23;79.79
54666;BME280;40566;50.006;36.180;2022-07-23T00:45:54;99391.75;;;15.20;79.98
54666;BME280;40566;50.006;36.180;2022-07-23T00:50:55;99394.28;;;15.22;79.70
54666;BME280;40566;50.006;36.180;2022-07-23T00:55:55;99398.75;;;15.20;79.93
54666;BME280;40566;50.006;36.180;2022-07-23T01:00:56;99394.38;;;15.20;79.93
54666;BME280;40566;50.006;36.180;2022-07-23T01:05:57;99394.28;;;15.22;79.76
54666;BME280;40566;50.006;36.180;2022-07-23T01:10:59;99391.69;;;15.22;79.87
54666;BME280;40566;50.006;36.180;2022-07-23T01:15:59;99396.97;;;15.20;79.80
54666;BME280;40566;50.006;36.180;2022-07-23T01:21:00;99398.75;;;15.20;79.95
54666;BME280;40566;50.006;36.180;2022-07-23T01:26:01;99403.88;;;15.21;79.94
54666;BME280;40566;50.006;36.180;2022-07-23T01:31:01;99401.34;;;15.20;79.96
54666;BME280;40566;50.006;36.180;2022-07-23T01:36:02;99420.53;;;15.19;79.86
54666;BME280;40566;50.006;36.180;2022-07-23T01:41:03;99425.72;;;15.19;79.85
54666;BME280;40566;50.006;36.180;2022-07-23T01:46:04;99432.78;;;15.17;79.82
54666;BME280;40566;50.006;36.180;2022-07-23T01:51:05;99431.09;;;15.16;79.98
54666;BME280;40566;50.006;36.180;2022-07-23T01:56:05;99429.50;;;15.13;80.03
54666;BME280;40566;50.006;36.180;2022-07-23T02:01:06;99436.38;;;15.14;80.22
54666;BME280;40566;50.006;36.180;2022-07-23T02:06:07;99451.25;;;15.12;80.22
54666;BME280;40566;50.006;36.180;2022-07-23T02:11:07;99437.63;;;15.07;80.39
54666;BME280;40566;50.006;36.180;2022-07-23T02:16:08;99441.06;;;15.07;80.36
54666;BME280;40566;50.006;36.180;2022-07-23T02:21:09;99445.34;;;15.08;80.40
54666;BME280;40566;50.006;36.180;2022-07-23T02:26:09;99438.31;;;15.11;80.14
54666;BME280;40566;50.006;36.180;2022-07-23T02:31:10;99441.00;;;15.09;80.28
54666;BME280;40566;50.006;36.180;2022-07-23T02:36:10;99453.94;;;15.11;80.16
54666;BME280;40566;50.006;36.180;2022-07-23T02:41:11;99459.94;;;15.13;80.27
54666;BME280;40566;50.006;36.180;2022-07-23T02:46:12;99462.44;;;15.14;80.28
54666;BME280;40566;50.006;36.180;2022-07-23T02:51:12;99466.72;;;15.15;80.23
54666;BME280;40566;50.006;36.180;2022-07-23T02:56:13;99458.09;;;15.15;80.35
54666;BME280;40566;50.006;36.180;2022-07-23T03:01:13;99458.75;;;15.18;80.39
54666;BME280;40566;50.006;36.180;2022-07-23T03:06:14;99468.09;;;15.22;80.21
54666;BME280;40566;50.006;36.180;2022-07-23T03:11:16;99458.59;;;15.21;80.13
54666;BME280;40566;50.006;36.180;2022-07-23T03:16:16;99477.66;;;15.22;80.26
54666;BME280;40566;50.006;36.180;2022-07-23T03:21:17;99483.56;;;15.25;80.42
54666;BME280;40566;50.006;36.180;2022-07-23T03:26:18;99484.84;;;15.34;80.27
54666;BME280;40566;50.006;36.180;2022-07-23T03:31:18;99500.97;;;15.42;80.45
54666;BME280;40566;50.006;36.180;2022-07-23T03:36:19;99505.59;;;15.53;80.02
54666;BME280;40566;50.006;36.180;2022-07-23T03:41:20;99501.38;;;15.68;79.62
54666;BME280;40566;50.006;36.180;2022-07-23T03:46:20;99520.09;;;15.76;79.85
54666;BME280;40566;50.006;36.180;2022-07-23T03:51:21;99516.53;;;15.77;79.79
54666;BME280;40566;50.006;36.180;2022-07-23T03:56:22;99512.00;;;15.81;79.72
54666;BME280;40566;50.006;36.180;2022-07-23T04:01:22;99502.88;;;15.90;79.54
54666;BME280;40566;50.006;36.180;2022-07-23T04:06:23;99507.00;;;15.94;79.62
54666;BME280;40566;50.006;36.180;2022-07-23T04:11:23;99510.94;;;16.01;79.53
54666;BME280;40566;50.006;36.180;2022-07-23T04:16:24;99505.97;;;16.12;79.48
54666;BME280;40566;50.006;36.180;2022-07-23T04:21:25;99500.41;;;16.18;79.37
54666;BME280;40566;50.006;36.180;2022-07-23T04:26:25;99514.56;;;16.30;79.25
54666;BME280;40566;50.006;36.180;2022-07-23T04:31:26;99513.94;;;16.41;78.86
54666;BME280;40566;50.006;36.180;2022-07-23T04:36:26;99517.09;;;16.48;79.26
54666;BME280;40566;50.006;36.180;2022-07-23T04:41:27;99522.56;;;16.43;79.47
54666;BME280;40566;50.006;36.180;2022-07-23T04:46:28;99516.75;;;16.38;79.50
54666;BME280;40566;50.006;36.180;2022-07-23T04:51:28;99523.50;;;16.42;79.72
54666;BME280;40566;50.006;36.180;2022-07-23T04:56:29;99514.97;;;16.38;79.99
54666;BME280;40566;50.006;36.180;2022-07-23T05:01:30;99524.91;;;16.48;79.52
54666;BME280;40566;50.006;36.180;2022-07-23T05:06:30;99532.47;;;16.52;79.71
54666;BME280;40566;50.006;36.180;2022-07-23T05:11:31;99533.34;;;16.69;79.21
54666;BME280;40566;50.006;36.180;2022-07-23T05:16:32;99531.56;;;16.69;79.13
54666;BME280;40566;50.006;36.180;2022-07-23T05:21:32;99527.47;;;16.79;79.39
54666;BME280;40566;50.006;36.180;2022-07-23T05:26:33;99533.38;;;16.99;78.77
54666;BME280;40566;50.006;36.180;2022-07-23T05:31:34;99536.50;;;17.20;78.48
54666;BME280;40566;50.006;36.180;2022-07-23T05:36:34;99532.81;;;17.38;77.90
54666;BME280;40566;50.006;36.180;2022-07-23T05:41:35;99529.66;;;17.48;77.96
54666;BME280;40566;50.006;36.180;2022-07-23T05:46:36;99526.94;;;17.49;78.22
54666;BME280;40566;50.006;36.180;2022-07-23T05:51:36;99529.81;;;17.44;78.48
54666;BME280;40566;50.006;36.180;2022-07-23T05:56:37;99529.44;;;17.65;77.89
54666;BME280;40566;50.006;36.180;2022-07-23T06:01:38;99531.56;;;18.03;77.03
54666;BME280;40566;50.006;36.180;2022-07-23T06:06:38;99534.09;;;18.32;76.22
54666;BME280;40566;50.006;36.180;2022-07-23T06:11:39;99529.06;;;18.56;75.94
54666;BME280;40566;50.006;36.180;2022-07-23T06:16:40;99546.72;;;18.67;75.76
54666;BME280;40566;50.006;36.180;2022-07-23T06:21:41;99546.88;;;18.51;76.17
54666;BME280;40566;50.006;36.180;2022-07-23T06:26:41;99545.19;;;18.50;76.49
54666;BME280;40566;50.006;36.180;2022-07-23T06:31:42;99541.69;;;18.63;76.23
54666;BME280;40566;50.006;36.180;2022-07-23T06:36:43;99541.50;;;18.67;75.93
54666;BME280;40566;50.006;36.180;2022-07-23T06:41:43;99545.34;;;18.61;76.34
54666;BME280;40566;50.006;36.180;2022-07-23T06:46:44;99530.38;;;18.90;75.81
54666;BME280;40566;50.006;36.180;2022-07-23T06:51:45;99536.19;;;19.08;75.00
54666;BME280;40566;50.006;36.180;2022-07-23T06:56:45;99533.84;;;18.91;75.68
54666;BME280;40566;50.006;36.180;2022-07-23T07:01:46;99537.03;;;19.09;75.48
54666;BME280;40566;50.006;36.180;2022-07-23T07:06:47;99535.16;;;19.24;75.13
54666;BME280;40566;50.006;36.180;2022-07-23T07:11:47;99537.69;;;19.38;75.07
54666;BME280;40566;50.006;36.180;2022-07-23T07:16:48;99534.31;;;19.49;74.71
54666;BME280;40566;50.006;36.180;2022-07-23T07:21:48;99539.38;;;19.52;74.84
54666;BME280;40566;50.006;36.180;2022-07-23T07:26:49;99544.94;;;19.60;74.87
54666;BME280;40566;50.006;36.180;2022-07-23T07:31:50;99556.16;;;19.62;74.58
54666;BME280;40566;50.006;36.180;2022-07-23T07:36:50;99553.88;;;19.83;74.22
54666;BME280;40566;50.006;36.180;2022-07-23T07:41:51;99552.69;;;20.00;73.68
54666;BME280;40566;50.006;36.180;2022-07-23T07:46:51;99548.94;;;20.41;72.81
54666;BME280;40566;50.006;36.180;2022-07-23T07:51:53;99555.63;;;20.82;71.68
54666;BME280;40566;50.006;36.180;2022-07-23T07:56:53;99552.84;;;20.72;71.96
54666;BME280;40566;50.006;36.180;2022-07-23T08:01:54;99546.06;;;20.81;71.72
54666;BME280;40566;50.006;36.180;2022-07-23T08:06:55;99550.34;;;21.06;71.27
54666;BME280;40566;50.006;36.180;2022-07-23T08:11:55;99546.81;;;21.30;70.51
54666;BME280;40566;50.006;36.180;2022-07-23T08:16:56;99549.19;;;21.22;70.99
54666;BME280;40566;50.006;36.180;2022-07-23T08:21:57;99541.66;;;21.17;70.93
54666;BME280;40566;50.006;36.180;2022-07-23T08:26:57;99544.19;;;21.30;70.78
54666;BME280;40566;50.006;36.180;2022-07-23T08:31:58;99544.22;;;21.41;70.34
54666;BME280;40566;50.006;36.180;2022-07-23T08:36:58;99546.22;;;21.26;70.65
54666;BME280;40566;50.006;36.180;2022-07-23T08:41:59;99539.72;;;21.66;69.54
54666;BME280;40566;50.006;36.180;2022-07-23T08:47:00;99533.03;;;22.07;68.50
54666;BME280;40566;50.006;36.180;2022-07-23T08:52:01;99538.88;;;22.22;68.05
54666;BME280;40566;50.006;36.180;2022-07-23T08:57:02;99528.34;;;22.33;67.66
54666;BME280;40566;50.006;36.180;2022-07-23T09:02:02;99538.63;;;22.47;67.56
54666;BME280;40566;50.006;36.180;2022-07-23T09:07:03;99544.97;;;22.45;67.30
54666;BME280;40566;50.006;36.180;2022-07-23T09:12:05;99532.16;;;22.17;67.62
54666;BME280;40566;50.006;36.180;2022-07-23T09:17:15;99531.47;;;22.04;67.63
54666;BME280;40566;50.006;36.180;2022-07-23T09:22:23;99538.66;;;22.02;67.60
54666;BME280;40566;50.006;36.180;2022-07-23T09:27:51;99541.75;;;22.07;67.21
54666;BME280;40566;50.006;36.180;2022-07-23T09:33:13;99534.06;;;22.49;66.11
54666;BME280;40566;50.006;36.180;2022-07-23T09:38:15;99545.94;;;22.76;65.22
54666;BME280;40566;50.006;36.180;2022-07-23T09:43:27;99536.94;;;22.78;65.04
54666;BME280;40566;50.006;36.180;2022-07-23T09:48:31;99544.03;;;22.78;65.56
54666;BME280;40566;50.006;36.180;2022-07-23T09:53:32;99537.59;;;22.92;64.66
54666;BME280;40566;50.006;36.180;2022-07-23T09:58:35;99532.38;;;23.13;63.82
54666;BME280;40566;50.006;36.180;2022-07-23T10:03:44;99532.22;;;23.56;62.83
54666;BME280;40566;50.006;36.180;2022-07-23T10:08:47;99529.06;;;23.84;62.10
54666;BME280;40566;50.006;36.180;2022-07-23T10:13:50;99525.06;;;23.68;62.21
54666;BME280;40566;50.006;36.180;2022-07-23T10:19:09;99535.66;;;23.47;61.98
54666;BME280;40566;50.006;36.180;2022-07-23T10:39:42;99516.09;;;23.60;60.73
54666;BME280;40566;50.006;36.180;2022-07-23T10:44:45;99516.69;;;23.63;60.12
54666;BME280;40566;50.006;36.180;2022-07-23T10:49:46;99502.06;;;23.80;59.43
54666;BME280;40566;50.006;36.180;2022-07-23T10:54:56;99507.25;;;24.01;58.62
54666;BME280;40566;50.006;36.180;2022-07-23T11:00:21;99498.56;;;24.20;57.97
54666;BME280;40566;50.006;36.180;2022-07-23T11:05:24;99494.41;;;24.27;57.31
54666;BME280;40566;50.006;36.180;2022-07-23T11:37:07;99496.84;;;24.00;57.38
54666;BME280;40566;50.006;36.180;2022-07-23T11:42:18;99498.31;;;24.43;56.22
54666;BME280;40566;50.006;36.180;2022-07-23T11:47:24;99496.09;;;24.97;54.67
54666;BME280;40566;50.006;36.180;2022-07-23T11:52:27;99477.34;;;24.70;55.67
54666;BME280;40566;50.006;36.180;2022-07-23T11:57:30;99475.78;;;24.68;55.77
54666;BME280;40566;50.006;36.180;2022-07-23T12:02:31;99482.06;;;24.77;55.13
54666;BME280;40566;50.006;36.180;2022-07-23T12:07:37;99477.16;;;24.91;55.37
54666;BME280;40566;50.006;36.180;2022-07-23T12:12:41;99479.69;;;24.73;55.65
54666;BME280;40566;50.006;36.180;2022-07-23T12:17:45;99472.41;;;24.37;56.49
54666;BME280;40566;50.006;36.180;2022-07-23T12:22:49;99467.84;;;24.68;55.55
54666;BME280;40566;50.006;36.180;2022-07-23T12:33:39;99455.88;;;25.78;52.66
54666;BME280;40566;50.006;36.180;2022-07-23T12:38:46;99463.97;;;26.04;51.60
54666;BME280;40566;50.006;36.180;2022-07-23T12:43:49;99465.63;;;25.49;53.33
54666;BME280;40566;50.006;36.180;2022-07-23T12:48:52;99460.22;;;25.41;53.40
54666;BME280;40566;50.006;36.180;2022-07-23T12:54:05;99454.06;;;24.84;54.06
54666;BME280;40566;50.006;36.180;2022-07-23T12:59:11;99453.91;;;24.37;54.81
54666;BME280;40566;50.006;36.180;2022-07-23T13:04:15;99453.50;;;24.80;53.74
54666;BME280;40566;50.006;36.180;2022-07-23T13:09:23;99460.72;;;24.98;53.42
54666;BME280;40566;50.006;36.180;2022-07-23T13:14:25;99460.22;;;24.65;53.70
54666;BME280;40566;50.006;36.180;2022-07-23T13:19:26;99471.59;;;24.46;54.19
54666;BME280;40566;50.006;36.180;2022-07-23T13:24:27;99470.72;;;24.16;54.52
54666;BME280;40566;50.006;36.180;2022-07-23T13:29:28;99475.69;;;23.90;54.69
54666;BME280;40566;50.006;36.180;2022-07-23T13:34:28;99478.59;;;23.56;55.71
54666;BME280;40566;50.006;36.180;2022-07-23T13:39:29;99486.47;;;23.25;56.27
54666;BME280;40566;50.006;36.180;2022-07-23T13:44:30;99484.44;;;23.08;56.62
54666;BME280;40566;50.006;36.180;2022-07-23T13:49:30;99487.09;;;22.96;56.78
54666;BME280;40566;50.006;36.180;2022-07-23T13:54:31;99480.75;;;22.99;56.70
54666;BME280;40566;50.006;36.180;2022-07-23T13:59:31;99465.41;;;23.35;55.64
54666;BME280;40566;50.006;36.180;2022-07-23T14:04:33;99453.13;;;23.55;55.03
54666;BME280;40566;50.006;36.180;2022-07-23T14:09:33;99459.56;;;23.62;55.67
54666;BME280;40566;50.006;36.180;2022-07-23T14:14:34;99459.72;;;23.70;55.07
54666;BME280;40566;50.006;36.180;2022-07-23T14:19:35;99452.03;;;23.58;55.62
54666;BME280;40566;50.006;36.180;2022-07-23T14:24:36;99462.66;;;23.36;56.67
54666;BME280;40566;50.006;36.180;2022-07-23T14:29:36;99469.38;;;23.20;56.89
54666;BME280;40566;50.006;36.180;2022-07-23T14:34:37;99471.13;;;23.09;56.98
54666;BME280;40566;50.006;36.180;2022-07-23T14:39:39;99473.88;;;23.08;57.26
54666;BME280;40566;50.006;36.180;2022-07-23T14:44:39;99487.00;;;23.19;57.14
54666;BME280;40566;50.006;36.180;2022-07-23T14:49:40;99476.22;;;23.32;56.82
54666;BME280;40566;50.006;36.180;2022-07-23T14:54:41;99472.16;;;23.49;56.58
54666;BME280;40566;50.006;36.180;2022-07-23T14:59:42;99474.38;;;23.53;56.62
54666;BME280;40566;50.006;36.180;2022-07-23T15:04:43;99474.72;;;23.60;56.93
54666;BME280;40566;50.006;36.180;2022-07-23T15:09:43;99479.19;;;23.69;56.83
54666;BME280;40566;50.006;36.180;2022-07-23T15:14:44;99481.44;;;23.74;56.80
54666;BME280;40566;50.006;36.180;2022-07-23T15:19:46;99479.00;;;23.82;56.53
54666;BME280;40566;50.006;36.180;2022-07-23T15:24:46;99478.50;;;23.77;56.92
54666;BME280;40566;50.006;36.180;2022-07-23T15:29:47;99473.91;;;23.69;57.03
54666;BME280;40566;50.006;36.180;2022-07-23T15:34:48;99489.91;;;23.68;57.21
54666;BME280;40566;50.006;36.180;2022-07-23T15:39:49;99483.06;;;23.65;57.26
54666;BME280;40566;50.006;36.180;2022-07-23T15:44:49;99489.16;;;23.56;57.83
54666;BME280;40566;50.006;36.180;2022-07-23T15:49:50;99479.63;;;23.44;57.94
54666;BME280;40566;50.006;36.180;2022-07-23T15:54:51;99484.03;;;23.33;58.46
54666;BME280;40566;50.006;36.180;2022-07-23T15:59:51;99477.84;;;23.23;58.72
54666;BME280;40566;50.006;36.180;2022-07-23T16:04:52;99463.91;;;23.11;58.93
54666;BME280;40566;50.006;36.180;2022-07-23T16:09:53;99479.56;;;23.03;59.49
54666;BME280;40566;50.006;36.180;2022-07-23T16:14:54;99463.03;;;22.90;59.58
54666;BME280;40566;50.006;36.180;2022-07-23T16:19:54;99470.28;;;22.76;60.16
54666;BME280;40566;50.006;36.180;2022-07-23T16:24:55;99472.41;;;22.62;60.40
54666;BME280;40566;50.006;36.180;2022-07-23T16:29:56;99474.06;;;22.63;60.51
54666;BME280;40566;50.006;36.180;2022-07-23T16:34:57;99469.81;;;22.50;60.66
54666;BME280;40566;50.006;36.180;2022-07-23T16:39:58;99476.09;;;22.38;60.89
54666;BME280;40566;50.006;36.180;2022-07-23T16:44:59;99479.22;;;22.21;61.30
54666;BME280;40566;50.006;36.180;2022-07-23T16:49:59;99483.78;;;22.07;61.74
54666;BME280;40566;50.006;36.180;2022-07-23T16:55:00;99491.75;;;21.96;62.07
54666;BME280;40566;50.006;36.180;2022-07-23T17:00:03;99495.19;;;21.85;62.67
54666;BME280;40566;50.006;36.180;2022-07-23T17:05:05;99503.34;;;21.71;63.30
54666;BME280;40566;50.006;36.180;2022-07-23T17:10:09;99499.88;;;21.59;63.79
54666;BME280;40566;50.006;36.180;2022-07-23T17:15:10;99507.41;;;21.52;64.07
54666;BME280;40566;50.006;36.180;2022-07-23T17:20:12;99526.44;;;21.45;64.34
54666;BME280;40566;50.006;36.180;2022-07-23T17:25:13;99527.09;;;21.35;64.71
54666;BME280;40566;50.006;36.180;2022-07-23T17:30:19;99540.94;;;21.26;65.03
54666;BME280;40566;50.006;36.180;2022-07-23T17:35:20;99536.16;;;21.20;65.29
54666;BME280;40566;50.006;36.180;2022-07-23T17:40:21;99546.91;;;21.17;65.39
54666;BME280;40566;50.006;36.180;2022-07-23T17:45:21;99556.59;;;21.16;65.56
54666;BME280;40566;50.006;36.180;2022-07-23T17:50:23;99566.06;;;21.19;65.48
54666;BME280;40566;50.006;36.180;2022-07-23T17:55:25;99561.00;;;21.16;65.66
54666;BME280;40566;50.006;36.180;2022-07-23T18:00:29;99560.28;;;21.14;65.77
54666;BME280;40566;50.006;36.180;2022-07-23T18:05:30;99573.06;;;21.07;66.01
54666;BME280;40566;50.006;36.180;2022-07-23T18:10:31;99562.50;;;20.96;66.38
54666;BME280;40566;50.006;36.180;2022-07-23T18:15:32;99562.22;;;20.88;66.62
54666;BME280;40566;50.006;36.180;2022-07-23T18:20:33;99556.81;;;20.78;67.06
54666;BME280;40566;50.006;36.180;2022-07-23T18:25:33;99558.31;;;20.69;67.15
54666;BME280;40566;50.006;36.180;2022-07-23T18:30:34;99556.97;;;20.64;67.35
54666;BME280;40566;50.006;36.180;2022-07-23T18:35:36;99544.47;;;20.54;67.56
54666;BME280;40566;50.006;36.180;2022-07-23T18:40:37;99555.75;;;20.44;67.90
54666;BME280;40566;50.006;36.180;2022-07-23T18:45:40;99573.31;;;20.43;68.03
54666;BME280;40566;50.006;36.180;2022-07-23T18:50:41;99578.06;;;20.38;68.09
54666;BME280;40566;50.006;36.180;2022-07-23T18:55:42;99580.69;;;20.38;68.27
54666;BME280;40566;50.006;36.180;2022-07-23T19:00:43;99587.84;;;20.36;68.47
54666;BME280;40566;50.006;36.180;2022-07-23T19:05:43;99576.38;;;20.37;68.18
54666;BME280;40566;50.006;36.180;2022-07-23T19:10:44;99575.19;;;20.41;68.32
54666;BME280;40566;50.006;36.180;2022-07-23T19:15:45;99592.84;;;20.39;68.21
54666;BME280;40566;50.006;36.180;2022-07-23T19:20:47;99605.47;;;20.34;68.41
54666;BME280;40566;50.006;36.180;2022-07-23T19:25:47;99623.25;;;20.30;68.73
54666;BME280;40566;50.006;36.180;2022-07-23T19:30:48;99637.31;;;20.29;68.86
54666;BME280;40566;50.006;36.180;2022-07-23T19:35:49;99635.13;;;20.23;69.01
54666;BME280;40566;50.006;36.180;2022-07-23T19:40:49;99653.00;;;20.18;69.07
54666;BME280;40566;50.006;36.180;2022-07-23T19:45:50;99651.75;;;20.11;69.18
54666;BME280;40566;50.006;36.180;2022-07-23T19:50:50;99652.91;;;20.07;69.14
54666;BME280;40566;50.006;36.180;2022-07-23T19:55:53;99642.69;;;20.02;69.14
54666;BME280;40566;50.006;36.180;2022-07-23T20:00:54;99642.50;;;19.92;69.30
54666;BME280;40566;50.006;36.180;2022-07-23T20:05:54;99637.03;;;19.83;69.07
54666;BME280;40566;50.006;36.180;2022-07-23T20:10:55;99626.94;;;19.76;69.27
54666;BME280;40566;50.006;36.180;2022-07-23T20:15:56;99624.66;;;19.72;69.14
54666;BME280;40566;50.006;36.180;2022-07-23T20:20:56;99608.44;;;19.65;69.14
54666;BME280;40566;50.006;36.180;2022-07-23T20:25:57;99615.59;;;19.63;69.11
54666;BME280;40566;50.006;36.180;2022-07-23T20:30:58;99612.97;;;19.63;69.04
54666;BME280;40566;50.006;36.180;2022-07-23T20:36:04;99608.66;;;19.62;69.03
54666;BME280;40566;50.006;36.180;2022-07-23T20:41:05;99617.56;;;19.59;68.98
54666;BME280;40566;50.006;36.180;2022-07-23T20:46:05;99598.75;;;19.53;69.12
54666;BME280;40566;50.006;36.180;2022-07-23T20:51:06;99597.59;;;19.44;69.32
54666;BME280;40566;50.006;36.180;2022-07-23T20:56:07;99597.94;;;19.39;69.29
54666;BME280;40566;50.006;36.180;2022-07-23T21:01:08;99609.03;;;19.30;69.65
54666;BME280;40566;50.006;36.180;2022-07-23T21:06:08;99601.88;;;19.19;69.83
54666;BME280;40566;50.006;36.180;2022-07-23T21:11:10;99604.88;;;19.13;69.88
54666;BME280;40566;50.006;36.180;2022-07-23T21:16:10;99594.06;;;19.05;70.06
54666;BME280;40566;50.006;36.180;2022-07-23T21:21:11;99596.91;;;19.02;70.21
54666;BME280;40566;50.006;36.180;2022-07-23T21:26:13;99590.44;;;18.93;70.42
54666;BME280;40566;50.006;36.180;2022-07-23T21:31:14;99588.22;;;18.87;70.52
54666;BME280;40566;50.006;36.180;2022-07-23T21:36:15;99579.84;;;18.82;70.83
54666;BME280;40566;50.006;36.180;2022-07-23T21:41:16;99562.78;;;18.75;70.71
54666;BME280;40566;50.006;36.180;2022-07-23T21:46:16;99559.94;;;18.65;71.13
54666;BME280;40566;50.006;36.180;2022-07-23T21:51:17;99561.16;;;18.59;71.21
54666;BME280;40566;50.006;36.180;2022-07-23T21:56:17;99569.97;;;18.58;71.17
54666;BME280;40566;50.006;36.180;2022-07-23T22:01:19;99566.69;;;18.55;71.44
54666;BME280;40566;50.006;36.180;2022-07-23T22:06:19;99564.25;;;18.52;71.57
54666;BME280;40566;50.006;36.180;2022-07-23T22:11:20;99570.53;;;18.49;71.67
54666;BME280;40566;50.006;36.180;2022-07-23T22:16:21;99571.69;;;18.45;71.82
54666;BME280;40566;50.006;36.180;2022-07-23T22:21:21;99571.75;;;18.43;71.93
54666;BME280;40566;50.006;36.180;2022-07-23T22:26:22;99568.97;;;18.32;71.99
54666;BME280;40566;50.006;36.180;2022-07-23T22:31:23;99575.06;;;18.33;71.92
54666;BME280;40566;50.006;36.180;2022-07-23T22:36:23;99591.19;;;18.27;72.17
54666;BME280;40566;50.006;36.180;2022-07-23T22:41:24;99585.53;;;18.18;72.25
54666;BME280;40566;50.006;36.180;2022-07-23T22:46:25;99596.31;;;18.14;72.84
54666;BME280;40566;50.006;36.180;2022-07-23T22:51:25;99600.81;;;18.12;72.77
54666;BME280;40566;50.006;36.180;2022-07-23T22:56:26;99587.06;;;18.08;72.83
54666;BME280;40566;50.006;36.180;2022-07-23T23:01:27;99588.56;;;17.98;72.88
54666;BME280;40566;50.006;36.180;2022-07-23T23:06:28;99587.25;;;17.91;72.97
54666;BME280;40566;50.006;36.180;2022-07-23T23:11:28;99583.88;;;17.89;73.26
54666;BME280;40566;50.006;36.180;2022-07-23T23:16:29;99590.22;;;17.84;73.48
54666;BME280;40566;50.006;36.180;2022-07-23T23:21:29;99596.56;;;17.80;73.61
54666;BME280;40566;50.006;36.180;2022-07-23T23:26:30;99588.56;;;17.83;73.56
54666;BME280;40566;50.006;36.180;2022-07-23T23:31:31;99583.47;;;17.80;73.21
54666;BME280;40566;50.006;36.180;2022-07-23T23:36:31;99591.59;;;17.76;73.61
54666;BME280;40566;50.006;36.180;2022-07-23T23:41:32;99602.25;;;17.73;73.85
54666;BME280;40566;50.006;36.180;2022-07-23T23:46:33;99594.69;;;17.68;73.69
54666;BME280;40566;50.006;36.180;2022-07-23T23:51:33;99601.69;;;17.68;73.74
54666;BME280;40566;50.006;36.180;2022-07-23T23:56:35;99588.63;;;17.68;73.86
